< Typhoon 200601 2006 Season Typhoon 200603 >
Typhoon 200602 (JELAWAT)
General InformationTrack Information on Google MapsDetailed Wind InformationAccess Analytics MapList of All Images || Disaster Info.WeblogTrackbackTyphoon FrontResourceGoogle EarthGE AnimationAtom FeedGeoJSON
Detalied Best Track (Time Zone = UTC)
Year Month Day Hour Lat. Long. Pressure (hPa) Wind (kt) Class Image Chart
2006 6 24 06 10.8 127.3 1006 0 2 Image Chart
2006 6 24 12 11.4 126.3 1006 0 2 Image Chart
2006 6 24 18 11.8 125.3 1006 0 2 Image Chart
2006 6 25 00 11.9 124.0 1008 0 2 Image Chart
2006 6 25 06 12.0 122.8 1006 0 2 Image Chart
2006 6 25 12 12.4 121.7 1008 0 2 Image Chart
2006 6 25 18 12.9 120.5 1008 0 2 Image Chart
2006 6 26 00 13.5 119.5 1006 0 2 Image Chart
2006 6 26 06 14.5 118.2 1004 0 2 Image Chart
2006 6 26 12 15.3 117.0 1004 0 2 Image Chart
2006 6 26 18 16.1 116.0 1004 0 2 Image Chart
2006 6 27 00 16.7 115.2 1002 0 2 Image Chart
2006 6 27 06 17.4 114.4 1002 0 2 Image Chart
2006 6 27 12 18.1 113.6 1000 35 3 Image Chart
2006 6 27 18 18.6 112.9 998 35 3 Image Chart
2006 6 28 00 19.3 112.1 998 35 3 Image Chart
2006 6 28 06 19.6 111.8 996 40 3 Image Chart
2006 6 28 12 20.0 111.4 996 40 3 Image Chart
2006 6 28 18 20.5 111.0 996 35 3 Image Chart
2006 6 29 00 21.1 110.7 998 0 2 Image Chart
Japan Meteorological Agency Best Track Data | Correction Date : 2006-08-22
< Typhoon 200601 2006 Season Typhoon 200603 >

Help